createdAt,value
2022-10-22T00:00:58.061Z,11.98
2022-10-22T00:03:25.124Z,13.00
2022-10-22T00:05:52.136Z,12.52
2022-10-22T00:08:19.051Z,12.38
2022-10-22T00:10:46.407Z,12.82
2022-10-22T00:13:13.346Z,13.23
2022-10-22T00:15:40.421Z,13.30
2022-10-22T00:18:07.301Z,13.13
2022-10-22T00:20:34.436Z,12.70
2022-10-22T00:23:01.312Z,13.50
2022-10-22T00:28:18.904Z,12.40
2022-10-22T00:30:45.944Z,11.93
2022-10-22T00:33:13.693Z,12.00
2022-10-22T00:35:40.672Z,12.15
2022-10-22T00:38:07.774Z,11.30
2022-10-22T00:40:34.643Z,12.32
2022-10-22T00:43:01.578Z,12.68
2022-10-22T00:45:28.699Z,13.32
2022-10-22T00:48:04.887Z,11.88
2022-10-22T00:50:40.504Z,11.77
2022-10-22T00:53:14.405Z,12.40
2022-10-22T00:55:44.115Z,12.10
2022-10-22T00:58:12.977Z,12.88
2022-10-22T01:00:40.228Z,11.57
2022-10-22T01:03:07.674Z,11.77
2022-10-22T01:05:44.048Z,11.85
2022-10-22T01:08:25.473Z,11.27
2022-10-22T01:11:15.704Z,12.85
2022-10-22T01:14:15.110Z,11.95
2022-10-22T01:20:16.341Z,12.02
2022-10-22T01:23:47.013Z,11.55
2022-10-22T01:26:35.239Z,10.77
2022-10-22T01:29:12.155Z,11.65
2022-10-22T01:31:53.077Z,11.10
2022-10-22T01:34:22.411Z,11.15
2022-10-22T01:36:52.823Z,12.10
2022-10-22T01:39:21.658Z,11.70
2022-10-22T01:41:48.435Z,11.27
2022-10-22T01:47:23.002Z,10.35
2022-10-22T01:50:40.144Z,11.18
2022-10-22T01:54:04.065Z,11.30
2022-10-22T01:56:55.285Z,11.00
2022-10-22T01:59:42.344Z,10.82
2022-10-22T02:04:58.558Z,9.57
2022-10-22T02:07:31.309Z,11.48
2022-10-22T02:10:00.766Z,11.75
2022-10-22T02:12:31.258Z,10.70
2022-10-22T02:15:00.829Z,11.07
2022-10-22T02:17:31.946Z,10.90
2022-10-22T02:20:11.090Z,11.40
2022-10-22T02:22:40.060Z,11.98
2022-10-22T02:25:09.035Z,11.38
2022-10-22T02:27:51.483Z,11.20
2022-10-22T02:30:21.613Z,10.82
2022-10-22T02:32:52.015Z,11.32
2022-10-22T02:35:24.280Z,11.07
2022-10-22T02:37:52.272Z,11.98
2022-10-22T02:40:20.417Z,11.13
2022-10-22T02:42:49.781Z,11.80
2022-10-22T02:45:19.107Z,10.90
2022-10-22T02:47:46.460Z,11.07
2022-10-22T02:50:13.647Z,10.93
2022-10-22T02:52:41.026Z,11.38
2022-10-22T02:55:09.071Z,11.93
2022-10-22T02:57:35.988Z,11.25
2022-10-22T03:00:07.327Z,11.88
2022-10-22T03:02:34.514Z,12.05
2022-10-22T03:05:01.362Z,12.45
2022-10-22T03:07:28.449Z,10.93
2022-10-22T03:09:55.444Z,11.00
2022-10-22T03:12:22.542Z,11.35
2022-10-22T03:14:49.444Z,11.25
2022-10-22T03:17:16.552Z,10.60
2022-10-22T03:19:43.646Z,11.68
2022-10-22T03:22:17.805Z,10.85
2022-10-22T03:24:49.371Z,11.77
2022-10-22T03:27:18.811Z,10.77
2022-10-22T03:29:46.957Z,10.60
2022-10-22T03:32:13.987Z,10.55
2022-10-22T03:34:41.030Z,11.98
2022-10-22T03:37:08.339Z,11.45
2022-10-22T03:39:37.256Z,10.73
2022-10-22T03:42:05.442Z,11.30
2022-10-22T03:44:33.261Z,11.68
2022-10-22T03:47:02.556Z,11.25
2022-10-22T03:49:29.965Z,10.88
2022-10-22T03:51:57.280Z,10.85
2022-10-22T03:54:24.660Z,11.23
2022-10-22T03:56:51.496Z,13.38
2022-10-22T03:59:18.684Z,11.00
2022-10-22T04:01:45.534Z,11.57
2022-10-22T04:04:12.522Z,10.57
2022-10-22T04:06:39.856Z,10.80
2022-10-22T04:09:06.859Z,10.45
2022-10-22T04:11:33.925Z,10.70
2022-10-22T04:14:00.914Z,11.13
2022-10-22T04:16:32.749Z,10.38
2022-10-22T04:18:59.888Z,10.48
2022-10-22T04:21:26.835Z,11.40
2022-10-22T04:23:53.949Z,10.82
2022-10-22T04:26:21.152Z,11.63
2022-10-22T04:28:50.152Z,11.35
2022-10-22T04:31:24.854Z,10.90
2022-10-22T04:33:59.270Z,11.10
2022-10-22T04:36:28.502Z,10.90
2022-10-22T04:39:00.804Z,11.68
2022-10-22T04:41:31.683Z,11.13
2022-10-22T04:43:59.622Z,11.93
2022-10-22T04:46:29.643Z,11.95
2022-10-22T04:48:56.898Z,11.95
2022-10-22T04:51:26.479Z,11.85
2022-10-22T04:53:54.079Z,11.15
2022-10-22T04:56:22.793Z,11.55
2022-10-22T04:58:58.453Z,11.38
2022-10-22T05:01:29.686Z,11.90
2022-10-22T05:04:00.595Z,11.60
2022-10-22T05:06:29.068Z,11.38
2022-10-22T05:09:01.220Z,12.50
2022-10-22T05:11:36.873Z,11.77
2022-10-22T05:14:06.581Z,11.73
2022-10-22T05:16:34.698Z,12.65
2022-10-22T05:19:02.901Z,12.32
2022-10-22T05:21:30.289Z,12.98
2022-10-22T05:23:59.884Z,11.73
2022-10-22T05:26:28.321Z,11.88
2022-10-22T05:28:55.537Z,13.27
2022-10-22T05:31:22.601Z,12.52
2022-10-22T05:33:49.484Z,11.93
2022-10-22T05:36:22.019Z,12.15
2022-10-22T05:38:50.089Z,11.95
2022-10-22T05:41:23.505Z,12.27
2022-10-22T05:43:51.154Z,11.95
2022-10-22T05:46:22.986Z,11.82
2022-10-22T05:48:59.445Z,12.50
2022-10-22T05:51:29.102Z,11.35
2022-10-22T05:54:03.085Z,11.75
2022-10-22T05:56:32.186Z,11.57
2022-10-22T05:58:59.587Z,12.20
2022-10-22T06:01:32.852Z,12.10
2022-10-22T06:04:03.398Z,12.45
2022-10-22T06:06:46.914Z,12.18
2022-10-22T06:09:25.661Z,11.88
2022-10-22T06:11:53.803Z,11.13
2022-10-22T06:14:21.765Z,12.10
2022-10-22T06:16:50.038Z,11.77
2022-10-22T06:19:20.127Z,12.45
2022-10-22T06:21:47.876Z,11.73
2022-10-22T06:24:15.981Z,11.38
2022-10-22T06:26:43.107Z,12.98
2022-10-22T06:29:12.577Z,11.30
2022-10-22T06:31:39.571Z,12.65
2022-10-22T06:34:13.356Z,11.85
2022-10-22T06:36:43.354Z,11.55
2022-10-22T06:39:17.027Z,12.45
2022-10-22T06:41:43.946Z,11.32
2022-10-22T06:44:16.220Z,11.93
2022-10-22T06:46:43.764Z,11.55
2022-10-22T06:49:16.787Z,12.52
2022-10-22T06:51:44.488Z,12.40
2022-10-22T06:54:11.854Z,11.52
2022-10-22T06:56:39.024Z,12.98
2022-10-22T06:59:06.313Z,12.27
2022-10-22T07:01:35.543Z,11.80
2022-10-22T07:04:14.630Z,11.65
2022-10-22T07:06:46.464Z,12.55
2022-10-22T07:09:14.710Z,11.60
2022-10-22T07:11:44.763Z,11.65
2022-10-22T07:14:13.362Z,12.52
2022-10-22T07:16:49.182Z,10.52
2022-10-22T07:19:16.777Z,12.15
2022-10-22T07:21:43.842Z,11.43
2022-10-22T07:24:11.744Z,11.60
2022-10-22T07:26:39.907Z,12.35
2022-10-22T07:29:07.638Z,12.23
2022-10-22T07:31:34.521Z,12.10
2022-10-22T07:34:01.851Z,12.15
2022-10-22T07:36:28.849Z,11.55
2022-10-22T07:38:58.967Z,11.52
2022-10-22T07:41:28.361Z,11.85
2022-10-22T07:43:56.562Z,11.70
2022-10-22T07:46:24.739Z,12.70
2022-10-22T07:48:52.059Z,12.23
2022-10-22T07:51:19.939Z,12.02
2022-10-22T07:53:46.989Z,12.20
2022-10-22T07:56:14.012Z,12.27
2022-10-22T07:58:41.683Z,12.70
2022-10-22T08:01:08.942Z,13.05
2022-10-22T08:03:36.114Z,12.43
2022-10-22T08:06:03.497Z,12.20
2022-10-22T08:08:30.957Z,11.77
2022-10-22T08:11:00.953Z,10.57
2022-10-22T08:13:30.926Z,12.25
2022-10-22T08:16:00.138Z,11.73
2022-10-22T08:18:27.694Z,11.80
2022-10-22T08:20:55.095Z,11.50
2022-10-22T08:23:25.963Z,11.88
2022-10-22T08:25:54.653Z,12.40
2022-10-22T08:28:22.459Z,12.13
2022-10-22T08:30:49.826Z,13.32
2022-10-22T08:33:16.887Z,12.30
2022-10-22T08:35:49.680Z,11.73
2022-10-22T08:38:17.913Z,11.20
2022-10-22T08:40:52.008Z,12.38
2022-10-22T08:43:42.154Z,12.45
2022-10-22T08:46:47.661Z,11.98
2022-10-22T08:49:23.233Z,12.93
2022-10-22T08:51:51.185Z,13.17
2022-10-22T08:54:36.939Z,12.73
2022-10-22T08:57:09.843Z,13.10
2022-10-22T09:00:04.557Z,12.40
2022-10-22T09:02:50.237Z,11.45
2022-10-22T09:05:39.458Z,12.73
2022-10-22T09:08:12.885Z,12.05
2022-10-22T09:10:48.871Z,12.30
2022-10-22T09:13:20.416Z,13.25
2022-10-22T09:15:55.325Z,12.65
2022-10-22T09:18:37.447Z,13.25
2022-10-22T09:21:37.173Z,11.73
2022-10-22T09:24:10.263Z,11.70
2022-10-22T09:26:39.686Z,12.32
2022-10-22T09:29:14.578Z,11.40
2022-10-22T09:31:41.861Z,12.20
2022-10-22T09:34:08.801Z,11.18
2022-10-22T09:36:37.846Z,12.57
2022-10-22T09:39:05.074Z,12.50
2022-10-22T09:41:32.047Z,11.57
2022-10-22T09:43:59.509Z,12.60
2022-10-22T09:46:43.866Z,11.93
2022-10-22T09:49:18.391Z,11.63
2022-10-22T09:51:59.977Z,11.95
2022-10-22T09:54:32.787Z,11.55
2022-10-22T09:57:14.629Z,11.75
2022-10-22T09:59:45.528Z,11.75
2022-10-22T10:02:37.536Z,12.43
2022-10-22T10:05:07.249Z,12.30
2022-10-22T10:07:37.023Z,11.07
2022-10-22T10:10:25.794Z,11.80
2022-10-22T10:13:16.121Z,11.85
2022-10-22T10:16:10.251Z,11.20
2022-10-22T10:18:58.492Z,11.95
2022-10-22T10:21:40.991Z,11.60
2022-10-22T10:24:41.288Z,11.70
2022-10-22T10:27:19.967Z,11.60
2022-10-22T10:30:14.148Z,11.38
2022-10-22T10:32:58.118Z,11.07
2022-10-22T10:35:55.167Z,11.25
2022-10-22T10:39:00.311Z,11.20
2022-10-22T10:42:01.314Z,10.43
2022-10-22T10:45:03.937Z,10.52
2022-10-22T10:48:18.913Z,11.60
2022-10-22T10:51:04.421Z,10.23
2022-10-22T10:54:04.780Z,10.77
2022-10-22T10:56:48.645Z,10.25
2022-10-22T10:59:42.729Z,11.57
2022-10-22T11:02:41.963Z,11.07
2022-10-22T11:05:47.867Z,11.18
2022-10-22T11:08:32.802Z,11.23
2022-10-22T11:11:13.329Z,12.07
2022-10-22T11:13:53.513Z,13.30
2022-10-22T11:16:36.764Z,13.98
2022-10-22T11:19:46.154Z,14.52
2022-10-22T11:22:37.676Z,13.43
2022-10-22T11:25:17.283Z,12.07
2022-10-22T11:30:56.176Z,12.18
2022-10-22T11:33:27.586Z,14.50
2022-10-22T11:35:57.228Z,12.73
2022-10-22T11:38:27.004Z,12.73
2022-10-22T11:41:12.174Z,14.98
2022-10-22T11:43:59.446Z,12.95
2022-10-22T11:47:08.933Z,12.55
2022-10-22T11:49:59.077Z,13.45
2022-10-22T11:52:48.612Z,12.18
2022-10-22T11:55:45.964Z,12.35
2022-10-22T11:58:28.582Z,10.88
2022-10-22T12:01:09.887Z,11.18
2022-10-22T12:03:53.307Z,10.43
2022-10-22T12:06:26.992Z,10.60
2022-10-22T12:08:56.490Z,9.55
2022-10-22T12:11:39.516Z,9.60
2022-10-22T12:14:27.958Z,7.38
2022-10-22T12:17:07.625Z,8.20
2022-10-22T12:19:39.628Z,7.15
2022-10-22T12:22:06.340Z,7.18
2022-10-22T12:24:55.389Z,6.85
2022-10-22T12:27:36.242Z,6.13
2022-10-22T12:30:25.119Z,5.63
2022-10-22T12:33:00.331Z,5.95
2022-10-22T12:35:33.576Z,4.57
2022-10-22T12:38:17.552Z,5.00
2022-10-22T12:40:48.477Z,5.40
2022-10-22T12:43:26.539Z,4.57
2022-10-22T12:45:54.101Z,4.47
2022-10-22T12:48:28.720Z,4.95
2022-10-22T12:51:01.542Z,4.22
2022-10-22T12:53:33.244Z,4.28
2022-10-22T12:56:04.800Z,3.75
2022-10-22T12:58:46.414Z,3.65
2022-10-22T13:01:16.330Z,2.80
2022-10-22T13:03:50.790Z,3.45
2022-10-22T13:06:20.280Z,2.53
2022-10-22T13:09:23.892Z,3.03
2022-10-22T13:11:59.221Z,2.97
2022-10-22T13:14:31.592Z,2.75
2022-10-22T13:17:15.053Z,2.30
2022-10-22T13:20:05.437Z,1.85
2022-10-22T13:23:03.176Z,2.25
2022-10-22T13:25:33.876Z,2.17
2022-10-22T13:28:03.966Z,2.20
2022-10-22T13:30:36.861Z,2.25
2022-10-22T13:33:23.137Z,1.83
2022-10-22T13:38:20.554Z,2.05
2022-10-22T13:40:48.302Z,1.60
2022-10-22T13:43:16.847Z,2.35
2022-10-22T13:45:47.140Z,2.25
2022-10-22T13:48:21.981Z,2.15
2022-10-22T13:50:50.084Z,1.73
2022-10-22T13:53:24.235Z,2.63
2022-10-22T13:55:51.258Z,1.73
2022-10-22T13:58:44.529Z,1.45
2022-10-22T14:01:25.458Z,2.20
2022-10-22T14:03:58.098Z,2.40
2022-10-22T14:06:31.167Z,2.20
2022-10-22T14:09:09.105Z,1.85
2022-10-22T14:11:36.205Z,1.58
2022-10-22T14:14:04.928Z,2.17
2022-10-22T14:16:33.204Z,1.75
2022-10-22T14:22:20.774Z,1.70
2022-10-22T14:24:47.632Z,1.60
2022-10-22T14:27:15.930Z,1.70
2022-10-22T14:32:34.705Z,2.28
2022-10-22T14:35:01.637Z,2.75
2022-10-22T14:37:54.040Z,1.60
2022-10-22T14:40:21.286Z,1.90
2022-10-22T14:42:49.186Z,2.05
2022-10-22T14:45:23.972Z,1.83
2022-10-22T14:47:52.264Z,1.50
2022-10-22T14:50:19.212Z,1.63
2022-10-22T14:52:46.328Z,1.98
2022-10-22T14:55:17.036Z,1.98
2022-10-22T14:57:44.560Z,2.00
2022-10-22T15:00:22.688Z,1.88
2022-10-22T15:03:14.259Z,1.80
2022-10-22T15:05:45.477Z,1.98
2022-10-22T15:08:15.736Z,1.65
2022-10-22T15:10:42.677Z,1.92
2022-10-22T15:13:09.935Z,1.80
2022-10-22T15:15:40.236Z,2.05
2022-10-22T15:18:07.711Z,1.85
2022-10-22T15:20:34.560Z,2.20
2022-10-22T15:23:01.502Z,2.00
2022-10-22T15:25:29.798Z,2.15
2022-10-22T15:28:01.883Z,1.80
2022-10-22T15:30:31.902Z,2.33
2022-10-22T15:32:58.846Z,2.22
2022-10-22T15:35:28.493Z,2.03
2022-10-22T15:37:55.658Z,2.55
2022-10-22T15:40:22.512Z,1.92
2022-10-22T15:42:49.297Z,2.03
2022-10-22T15:45:16.541Z,2.53
2022-10-22T15:47:48.397Z,2.35
2022-10-22T15:50:16.028Z,2.55
2022-10-22T15:52:42.986Z,2.50
2022-10-22T15:55:10.639Z,2.28
2022-10-22T15:57:38.753Z,2.55
2022-10-22T16:00:07.550Z,3.03
2022-10-22T16:02:39.668Z,2.83
2022-10-22T16:05:07.344Z,2.70
2022-10-22T16:07:34.182Z,2.72
2022-10-22T16:10:01.672Z,3.30
2022-10-22T16:12:28.684Z,3.58
2022-10-22T16:14:55.711Z,4.20
2022-10-22T16:17:23.392Z,5.35
2022-10-22T16:19:50.241Z,5.97
2022-10-22T16:22:17.259Z,5.38
2022-10-22T16:24:44.138Z,5.60
2022-10-22T16:27:11.792Z,5.40
2022-10-22T16:29:41.977Z,8.10
2022-10-22T16:32:09.130Z,7.28
2022-10-22T16:34:36.187Z,6.22
2022-10-22T16:37:03.133Z,5.55
2022-10-22T16:39:30.097Z,7.70
2022-10-22T16:41:57.139Z,7.60
2022-10-22T16:44:23.988Z,8.07
2022-10-22T16:46:50.894Z,9.30
2022-10-22T16:49:18.029Z,6.50
2022-10-22T16:51:44.969Z,5.88
2022-10-22T16:54:13.988Z,6.20
2022-10-22T16:56:41.271Z,6.32
2022-10-22T16:59:08.301Z,11.63
2022-10-22T17:01:40.392Z,8.98
2022-10-22T17:04:08.788Z,7.18
2022-10-22T17:06:35.985Z,7.70
2022-10-22T17:09:03.674Z,6.68
2022-10-22T17:11:35.670Z,5.55
2022-10-22T17:14:29.637Z,5.72
2022-10-22T17:16:56.493Z,12.63
2022-10-22T17:19:24.165Z,9.00
2022-10-22T17:21:53.442Z,7.50
2022-10-22T17:24:20.777Z,7.10
2022-10-22T17:26:47.838Z,7.55
2022-10-22T17:29:14.820Z,7.50
2022-10-22T17:31:42.128Z,7.97
2022-10-22T17:34:16.120Z,8.52
2022-10-22T17:36:44.005Z,8.20
2022-10-22T17:39:18.409Z,10.40
2022-10-22T17:41:45.921Z,8.15
2022-10-22T17:44:15.505Z,7.97
2022-10-22T17:46:43.853Z,7.93
2022-10-22T17:49:20.584Z,8.50
2022-10-22T17:51:48.445Z,7.93
2022-10-22T17:54:15.621Z,8.23
2022-10-22T17:56:43.092Z,8.20
2022-10-22T17:59:13.580Z,8.25
2022-10-22T18:01:46.015Z,8.32
2022-10-22T18:04:19.617Z,8.95
2022-10-22T18:06:47.901Z,9.30
2022-10-22T18:09:18.643Z,8.35
2022-10-22T18:11:47.705Z,9.13
2022-10-22T18:14:14.749Z,9.50
2022-10-22T18:16:42.203Z,10.35
2022-10-22T18:19:10.063Z,10.90
2022-10-22T18:21:36.965Z,12.90
2022-10-22T18:24:04.427Z,11.55
2022-10-22T18:26:31.446Z,10.75
2022-10-22T18:28:59.074Z,14.05
2022-10-22T18:34:21.602Z,9.18
2022-10-22T18:36:50.837Z,8.65
2022-10-22T18:39:18.612Z,8.25
2022-10-22T18:42:10.738Z,8.13
2022-10-22T18:45:06.175Z,8.52
2022-10-22T18:47:33.253Z,7.80
2022-10-22T18:50:00.176Z,7.90
2022-10-22T18:52:27.303Z,7.78
2022-10-22T18:54:54.791Z,9.23
2022-10-22T18:57:21.771Z,7.70
2022-10-22T18:59:48.907Z,7.03
2022-10-22T19:02:17.197Z,6.85
2022-10-22T19:04:44.940Z,6.70
2022-10-22T19:07:13.337Z,7.68
2022-10-22T19:09:42.459Z,6.60
2022-10-22T19:12:09.827Z,6.90
2022-10-22T19:14:36.775Z,8.38
2022-10-22T19:17:03.640Z,8.15
2022-10-22T19:19:30.827Z,8.70
2022-10-22T19:24:51.924Z,8.10
2022-10-22T19:27:19.746Z,7.78
2022-10-22T19:29:48.621Z,9.30
2022-10-22T19:32:19.833Z,8.25
2022-10-22T19:34:50.309Z,9.93
2022-10-22T19:37:17.317Z,9.25
2022-10-22T19:39:44.337Z,8.73
2022-10-22T19:42:11.234Z,7.60
2022-10-22T19:44:38.531Z,7.13
2022-10-22T19:47:05.564Z,7.15
2022-10-22T19:49:33.490Z,7.25
2022-10-22T19:52:00.344Z,6.60
2022-10-22T19:54:27.272Z,7.63
2022-10-22T19:56:54.293Z,7.60
2022-10-22T19:59:22.834Z,7.53
2022-10-22T20:01:50.116Z,8.32
2022-10-22T20:04:18.142Z,7.88
2022-10-22T20:06:45.816Z,7.85
2022-10-22T20:09:13.832Z,7.30
2022-10-22T20:11:40.665Z,7.80
2022-10-22T20:14:08.003Z,6.63
2022-10-22T20:16:36.008Z,6.60
2022-10-22T20:19:06.577Z,6.30
2022-10-22T20:21:34.827Z,6.97
2022-10-22T20:24:02.062Z,6.43
2022-10-22T20:26:29.780Z,6.82
2022-10-22T20:28:57.686Z,6.72
2022-10-22T20:31:28.218Z,6.70
2022-10-22T20:34:01.009Z,6.50
2022-10-22T20:36:29.895Z,6.28
2022-10-22T20:39:07.848Z,7.03
2022-10-22T20:41:37.686Z,6.20
2022-10-22T20:44:05.170Z,6.22
2022-10-22T20:46:33.393Z,6.25
2022-10-22T20:49:05.166Z,6.00
2022-10-22T20:51:32.327Z,6.45
2022-10-22T20:53:59.417Z,6.03
2022-10-22T20:56:27.950Z,6.45
2022-10-22T20:59:04.403Z,6.80
2022-10-22T21:04:05.334Z,5.47
2022-10-22T21:06:32.832Z,5.38
2022-10-22T21:09:00.468Z,5.15
2022-10-22T21:11:27.400Z,5.80
2022-10-22T21:13:54.477Z,5.68
2022-10-22T21:16:21.577Z,5.55
2022-10-22T21:18:48.556Z,5.13
2022-10-22T21:21:17.514Z,5.97
2022-10-22T21:23:44.610Z,6.13
2022-10-22T21:26:18.823Z,5.22
2022-10-22T21:28:46.589Z,5.68
2022-10-22T21:31:20.475Z,5.22
2022-10-22T21:34:15.149Z,4.80
2022-10-22T21:36:42.585Z,4.45
2022-10-22T21:39:09.664Z,4.40
2022-10-22T21:41:37.740Z,4.75
2022-10-22T21:44:06.333Z,4.57
2022-10-22T21:46:34.329Z,4.93
2022-10-22T21:49:03.752Z,4.55
2022-10-22T21:51:33.657Z,4.10
2022-10-22T21:54:01.084Z,3.70
2022-10-22T21:56:34.536Z,4.15
2022-10-22T21:59:03.573Z,4.03
2022-10-22T22:01:30.696Z,3.42
2022-10-22T22:03:58.091Z,3.83
2022-10-22T22:06:30.804Z,4.13
2022-10-22T22:09:00.255Z,3.13
2022-10-22T22:11:28.998Z,4.00
2022-10-22T22:13:57.944Z,3.47
2022-10-22T22:16:29.516Z,3.40
2022-10-22T22:21:32.624Z,3.25
2022-10-22T22:23:59.715Z,2.88
2022-10-22T22:26:30.085Z,3.35
2022-10-22T22:28:59.384Z,3.28
2022-10-22T22:31:33.279Z,3.40
2022-10-22T22:34:03.464Z,3.08
2022-10-22T22:36:38.654Z,3.40
2022-10-22T22:39:31.301Z,3.03
2022-10-22T22:41:58.157Z,3.28
2022-10-22T22:47:16.156Z,3.25
2022-10-22T22:49:43.436Z,3.70
2022-10-22T22:52:10.392Z,3.42
2022-10-22T22:54:37.246Z,3.45
2022-10-22T22:57:04.626Z,3.33
2022-10-22T22:59:31.476Z,2.90
2022-10-22T23:01:58.500Z,4.40
2022-10-22T23:04:26.349Z,3.88
2022-10-22T23:06:53.168Z,3.22
2022-10-22T23:11:52.640Z,4.20
2022-10-22T23:14:20.848Z,3.38
2022-10-22T23:16:50.715Z,4.18
2022-10-22T23:19:20.872Z,3.53
2022-10-22T23:21:54.072Z,4.18
2022-10-22T23:24:27.919Z,3.83
2022-10-22T23:26:59.441Z,3.55
2022-10-22T23:32:23.527Z,3.92
2022-10-22T23:34:50.708Z,4.20
2022-10-22T23:37:17.743Z,3.97
2022-10-22T23:39:44.613Z,3.70
2022-10-22T23:42:11.667Z,3.75
2022-10-22T23:44:38.590Z,4.00
2022-10-22T23:47:05.399Z,4.25
2022-10-22T23:49:32.825Z,4.65
2022-10-22T23:51:59.607Z,5.47
2022-10-22T23:54:26.591Z,4.50
2022-10-22T23:56:53.473Z,5.45
2022-10-22T23:59:21.133Z,5.45
